createdAt,value
2022-11-01T00:02:00.416Z,11.62
2022-11-01T00:04:27.009Z,11.63
2022-11-01T00:06:53.610Z,11.64
2022-11-01T00:09:20.152Z,11.62
2022-11-01T00:11:46.761Z,11.60
2022-11-01T00:14:15.454Z,11.61
2022-11-01T00:16:42.711Z,11.64
2022-11-01T00:19:09.653Z,11.63
2022-11-01T00:21:36.264Z,11.63
2022-11-01T00:24:02.894Z,11.61
2022-11-01T00:26:29.437Z,11.61
2022-11-01T00:28:56.015Z,11.62
2022-11-01T00:31:23.291Z,11.60
2022-11-01T00:33:49.815Z,11.63
2022-11-01T00:36:16.336Z,11.63
2022-11-01T00:38:42.942Z,11.61
2022-11-01T00:41:09.520Z,11.61
2022-11-01T00:43:36.868Z,11.62
2022-11-01T00:46:04.506Z,11.62
2022-11-01T00:48:31.427Z,11.61
2022-11-01T00:50:57.977Z,11.64
2022-11-01T00:53:24.485Z,11.66
2022-11-01T00:55:51.148Z,11.60
2022-11-01T00:58:18.122Z,11.60
2022-11-01T01:00:44.704Z,11.59
2022-11-01T01:03:11.283Z,11.57
2022-11-01T01:05:37.800Z,11.59
2022-11-01T01:08:04.552Z,11.57
2022-11-01T01:10:31.176Z,11.53
2022-11-01T01:12:57.978Z,11.54
2022-11-01T01:15:24.541Z,11.54
2022-11-01T01:17:51.088Z,11.56
2022-11-01T01:20:17.685Z,11.54
2022-11-01T01:22:44.230Z,11.52
2022-11-01T01:25:10.872Z,11.53
2022-11-01T01:27:38.091Z,11.52
2022-11-01T01:30:06.868Z,11.50
2022-11-01T01:32:33.953Z,11.55
2022-11-01T01:35:00.471Z,11.58
2022-11-01T01:37:27.485Z,11.54
2022-11-01T01:39:54.407Z,11.55
2022-11-01T01:42:30.908Z,11.58
2022-11-01T01:44:57.345Z,11.60
2022-11-01T01:47:31.073Z,11.61
2022-11-01T01:50:02.096Z,11.60
2022-11-01T01:52:31.917Z,11.59
2022-11-01T01:55:02.530Z,11.60
2022-11-01T01:57:29.198Z,11.62
2022-11-01T01:59:55.768Z,11.60
2022-11-01T02:02:22.361Z,11.61
2022-11-01T02:04:55.524Z,11.60
2022-11-01T02:07:22.065Z,11.60
2022-11-01T02:09:48.658Z,11.63
2022-11-01T02:12:15.172Z,11.64
2022-11-01T02:14:44.245Z,11.68
2022-11-01T02:17:28.236Z,11.73
2022-11-01T02:20:25.318Z,11.74
2022-11-01T02:23:11.447Z,11.73
2022-11-01T02:26:15.152Z,11.75
2022-11-01T02:28:41.622Z,11.81
2022-11-01T02:31:26.656Z,11.83
2022-11-01T02:34:01.355Z,11.79
2022-11-01T02:36:40.887Z,11.78
2022-11-01T02:39:19.424Z,11.79
2022-11-01T02:41:55.438Z,11.79
2022-11-01T02:44:28.499Z,11.81
2022-11-01T02:47:02.643Z,11.81
2022-11-01T02:49:41.508Z,11.81
2022-11-01T02:52:12.382Z,11.81
2022-11-01T02:54:58.547Z,11.82
2022-11-01T02:57:33.533Z,11.81
2022-11-01T03:00:05.089Z,11.88
2022-11-01T03:02:40.434Z,11.88
2022-11-01T03:05:37.371Z,11.87
2022-11-01T03:08:09.517Z,11.84
2022-11-01T03:11:10.149Z,11.82
2022-11-01T03:13:39.452Z,11.84
2022-11-01T03:16:19.953Z,11.82
2022-11-01T03:19:07.977Z,11.84
2022-11-01T03:21:46.734Z,11.83
2022-11-01T03:24:34.918Z,11.81
2022-11-01T03:27:08.949Z,11.87
2022-11-01T03:29:38.076Z,11.87
2022-11-01T03:32:07.065Z,11.92
2022-11-01T03:34:36.400Z,11.97
2022-11-01T03:37:07.707Z,11.95
2022-11-01T03:39:41.527Z,11.92
2022-11-01T03:42:13.225Z,11.93
2022-11-01T03:44:45.015Z,11.94
2022-11-01T03:47:11.921Z,11.97
2022-11-01T03:49:38.463Z,11.96
2022-11-01T03:52:05.053Z,11.93
2022-11-01T03:54:31.574Z,11.95
2022-11-01T03:56:58.179Z,11.99
2022-11-01T03:59:24.854Z,11.97
2022-11-01T04:01:51.663Z,11.97
2022-11-01T04:04:18.714Z,11.96
2022-11-01T04:06:45.320Z,11.99
2022-11-01T04:09:11.864Z,11.97
2022-11-01T04:11:38.400Z,11.99
2022-11-01T04:14:23.229Z,11.98
2022-11-01T04:17:08.396Z,12.04
2022-11-01T04:19:53.428Z,12.01
2022-11-01T04:22:22.158Z,12.02
2022-11-01T04:24:51.061Z,12.01
2022-11-01T04:27:17.576Z,12.00
2022-11-01T04:29:44.065Z,12.01
2022-11-01T04:32:10.583Z,12.03
2022-11-01T04:34:42.630Z,12.03
2022-11-01T04:37:10.203Z,12.03
2022-11-01T04:39:37.220Z,12.04
2022-11-01T04:42:03.914Z,12.06
2022-11-01T04:44:30.419Z,12.05
2022-11-01T04:46:56.923Z,12.04
2022-11-01T04:49:23.454Z,12.06
2022-11-01T04:51:49.976Z,12.06
2022-11-01T04:54:16.548Z,12.07
2022-11-01T04:56:43.094Z,12.07
2022-11-01T04:59:09.877Z,12.06
2022-11-01T05:01:36.754Z,12.06
2022-11-01T05:04:03.456Z,12.12
2022-11-01T05:06:30.018Z,12.12
2022-11-01T05:08:56.551Z,12.13
2022-11-01T05:11:25.799Z,12.12
2022-11-01T05:13:52.597Z,12.13
2022-11-01T05:16:20.502Z,12.14
2022-11-01T05:18:47.802Z,12.15
2022-11-01T05:21:14.332Z,12.16
2022-11-01T05:23:40.877Z,12.17
2022-11-01T05:26:07.441Z,12.20
2022-11-01T05:28:34.768Z,12.20
2022-11-01T05:31:01.445Z,12.21
2022-11-01T05:33:27.997Z,12.25
2022-11-01T05:35:54.565Z,12.22
2022-11-01T05:38:21.134Z,12.23
2022-11-01T05:40:47.649Z,12.24
2022-11-01T05:43:14.838Z,12.25
2022-11-01T05:45:41.486Z,12.26
2022-11-01T05:48:08.035Z,12.26
2022-11-01T05:50:34.921Z,12.27
2022-11-01T05:53:08.684Z,12.27
2022-11-01T05:55:36.112Z,12.28
2022-11-01T05:58:02.684Z,12.28
2022-11-01T06:00:29.260Z,12.30
2022-11-01T06:03:00.986Z,12.28
2022-11-01T06:05:29.127Z,12.33
2022-11-01T06:07:56.445Z,12.31
2022-11-01T06:10:23.040Z,12.32
2022-11-01T06:12:49.750Z,12.33
2022-11-01T06:15:16.389Z,12.34
2022-11-01T06:17:42.938Z,12.34
2022-11-01T06:20:10.157Z,12.34
2022-11-01T06:22:36.744Z,12.36
2022-11-01T06:25:04.399Z,12.36
2022-11-01T06:27:31.057Z,12.39
2022-11-01T06:29:57.645Z,12.40
2022-11-01T06:32:24.119Z,12.41
2022-11-01T06:34:50.618Z,12.43
2022-11-01T06:37:17.201Z,12.44
2022-11-01T06:39:43.717Z,12.44
2022-11-01T06:42:10.542Z,12.45
2022-11-01T06:44:37.236Z,12.50
2022-11-01T06:47:04.353Z,12.53
2022-11-01T06:49:31.778Z,12.56
2022-11-01T06:51:58.682Z,12.56
2022-11-01T06:54:25.964Z,12.59
2022-11-01T06:56:52.533Z,12.59
2022-11-01T06:59:19.291Z,12.62
2022-11-01T07:01:45.858Z,12.63
2022-11-01T07:04:12.867Z,12.66
2022-11-01T07:06:40.059Z,12.68
2022-11-01T07:09:07.289Z,12.70
2022-11-01T07:11:33.884Z,12.73
2022-11-01T07:14:00.450Z,12.75
2022-11-01T07:16:27.383Z,12.78
2022-11-01T07:18:53.979Z,12.80
2022-11-01T07:21:20.610Z,12.80
2022-11-01T07:23:47.239Z,12.80
2022-11-01T07:26:13.859Z,12.82
2022-11-01T07:28:40.836Z,12.84
2022-11-01T07:31:08.240Z,12.85
2022-11-01T07:33:35.110Z,12.86
2022-11-01T07:36:02.730Z,12.89
2022-11-01T07:38:29.520Z,12.89
2022-11-01T07:40:56.180Z,12.93
2022-11-01T07:43:22.976Z,12.96
2022-11-01T07:45:49.631Z,13.00
2022-11-01T07:48:18.634Z,13.00
2022-11-01T07:50:45.918Z,13.05
2022-11-01T07:53:18.291Z,13.07
2022-11-01T07:55:45.809Z,13.11
2022-11-01T07:58:13.421Z,13.15
2022-11-01T08:00:40.397Z,13.20
2022-11-01T08:03:09.477Z,13.21
2022-11-01T08:05:36.599Z,13.24
2022-11-01T08:08:04.248Z,13.29
2022-11-01T08:10:32.072Z,13.32
2022-11-01T08:13:02.725Z,13.39
2022-11-01T08:15:29.859Z,13.45
2022-11-01T08:17:57.829Z,13.51
2022-11-01T08:20:25.846Z,13.54
2022-11-01T08:22:53.249Z,13.57
2022-11-01T08:25:20.630Z,13.62
2022-11-01T08:27:47.194Z,13.68
2022-11-01T08:30:15.790Z,13.73
2022-11-01T08:32:42.338Z,13.77
2022-11-01T08:35:09.291Z,13.82
2022-11-01T08:37:35.827Z,13.85
2022-11-01T08:40:03.355Z,13.88
2022-11-01T08:42:29.852Z,13.91
2022-11-01T08:44:56.341Z,13.96
2022-11-01T08:47:22.816Z,14.00
2022-11-01T08:49:49.327Z,14.03
2022-11-01T08:52:15.810Z,14.06
2022-11-01T08:54:42.377Z,14.09
2022-11-01T08:57:08.994Z,14.12
2022-11-01T08:59:35.497Z,14.16
2022-11-01T09:02:02.111Z,14.21
2022-11-01T09:04:28.903Z,14.25
2022-11-01T09:06:55.808Z,14.30
2022-11-01T09:09:22.311Z,14.37
2022-11-01T09:11:48.883Z,14.42
2022-11-01T09:14:15.411Z,14.48
2022-11-01T09:16:41.929Z,14.53
2022-11-01T09:19:08.446Z,14.57
2022-11-01T09:21:34.956Z,14.60
2022-11-01T09:24:02.118Z,14.62
2022-11-01T09:26:29.272Z,14.66
2022-11-01T09:28:58.428Z,14.69
2022-11-01T09:31:25.257Z,14.71
2022-11-01T09:33:54.466Z,14.77
2022-11-01T09:36:21.521Z,14.79
2022-11-01T09:38:48.086Z,14.83
2022-11-01T09:41:47.222Z,14.86
2022-11-01T09:44:22.951Z,14.90
2022-11-01T09:47:16.098Z,15.01
2022-11-01T09:49:46.506Z,15.05
2022-11-01T09:52:21.166Z,15.10
2022-11-01T09:54:48.594Z,15.05
2022-11-01T09:57:27.200Z,15.10
2022-11-01T10:00:07.068Z,15.09
2022-11-01T10:02:50.263Z,15.16
2022-11-01T10:05:36.016Z,15.09
2022-11-01T10:08:19.396Z,15.13
2022-11-01T10:10:58.917Z,15.11
2022-11-01T10:14:04.670Z,15.07
2022-11-01T10:16:41.584Z,15.17
2022-11-01T10:19:17.714Z,15.23
2022-11-01T10:21:49.194Z,15.26
2022-11-01T10:24:27.808Z,15.34
2022-11-01T10:27:03.365Z,15.37
2022-11-01T10:30:02.951Z,15.42
2022-11-01T10:32:29.379Z,15.45
2022-11-01T10:35:01.483Z,15.54
2022-11-01T10:37:35.850Z,15.61
2022-11-01T10:40:12.811Z,15.65
2022-11-01T10:42:39.585Z,15.72
2022-11-01T10:45:15.460Z,15.76
2022-11-01T10:47:43.595Z,15.84
2022-11-01T10:50:21.087Z,15.90
2022-11-01T10:53:04.681Z,16.03
2022-11-01T10:55:47.588Z,16.01
2022-11-01T10:58:34.737Z,16.03
2022-11-01T11:01:06.660Z,16.10
2022-11-01T11:03:34.252Z,16.20
2022-11-01T11:06:05.886Z,16.17
2022-11-01T11:08:33.664Z,16.24
2022-11-01T11:11:05.351Z,16.25
2022-11-01T11:13:33.849Z,16.26
2022-11-01T11:16:07.028Z,16.37
2022-11-01T11:18:37.763Z,16.35
2022-11-01T11:21:13.460Z,16.35
2022-11-01T11:23:42.310Z,16.36
2022-11-01T11:26:13.463Z,16.28
2022-11-01T11:28:44.393Z,16.36
2022-11-01T11:31:15.005Z,16.42
2022-11-01T11:34:03.690Z,16.33
2022-11-01T11:36:35.715Z,16.35
2022-11-01T11:39:03.424Z,16.23
2022-11-01T11:41:39.251Z,16.25
2022-11-01T11:44:34.829Z,16.19
2022-11-01T11:47:03.127Z,16.15
2022-11-01T11:49:30.078Z,16.14
2022-11-01T11:51:56.622Z,16.11
2022-11-01T11:54:32.234Z,16.10
2022-11-01T11:57:11.641Z,16.15
2022-11-01T11:59:39.093Z,16.12
2022-11-01T12:02:19.461Z,16.09
2022-11-01T12:04:52.903Z,16.07
2022-11-01T12:07:31.734Z,16.01
2022-11-01T12:10:02.462Z,15.98
2022-11-01T12:12:31.999Z,15.98
2022-11-01T12:15:00.417Z,15.99
2022-11-01T12:17:36.615Z,16.00
2022-11-01T12:20:09.860Z,15.91
2022-11-01T12:22:39.386Z,15.99
2022-11-01T12:25:11.592Z,15.89
2022-11-01T12:27:38.848Z,15.92
2022-11-01T12:30:19.412Z,15.85
2022-11-01T12:32:57.564Z,15.83
2022-11-01T12:35:29.708Z,15.80
2022-11-01T12:38:07.527Z,15.72
2022-11-01T12:40:38.022Z,15.71
2022-11-01T12:43:15.840Z,15.68
2022-11-01T12:45:55.250Z,15.68
2022-11-01T12:48:21.809Z,15.68
2022-11-01T12:50:55.877Z,15.65
2022-11-01T12:53:28.262Z,15.56
2022-11-01T12:55:58.135Z,15.52
2022-11-01T12:58:28.039Z,15.53
2022-11-01T13:01:31.799Z,15.60
2022-11-01T13:03:58.471Z,15.66
2022-11-01T13:06:48.814Z,15.63
2022-11-01T13:09:15.261Z,15.61
2022-11-01T13:11:50.500Z,15.63
2022-11-01T13:14:22.970Z,15.65
2022-11-01T13:17:03.077Z,15.63
2022-11-01T13:20:05.541Z,15.67
2022-11-01T13:22:39.562Z,15.59
2022-11-01T13:25:13.647Z,15.57
2022-11-01T13:27:55.609Z,15.53
2022-11-01T13:30:22.299Z,15.59
2022-11-01T13:33:11.338Z,15.53
2022-11-01T13:35:59.082Z,15.54
2022-11-01T13:38:53.945Z,15.52
2022-11-01T13:41:25.575Z,15.53
2022-11-01T13:43:56.781Z,15.53
2022-11-01T13:46:31.820Z,15.51
2022-11-01T13:49:22.010Z,15.49
2022-11-01T13:52:03.477Z,15.48
2022-11-01T13:54:52.029Z,15.45
2022-11-01T13:57:21.401Z,15.41
2022-11-01T13:59:55.696Z,15.38
2022-11-01T14:02:28.875Z,15.37
2022-11-01T14:04:58.682Z,15.36
2022-11-01T14:07:26.752Z,15.30
2022-11-01T14:09:54.801Z,15.30
2022-11-01T14:12:38.125Z,15.28
2022-11-01T14:15:29.774Z,15.20
2022-11-01T14:17:56.345Z,15.11
2022-11-01T14:20:25.676Z,15.06
2022-11-01T14:22:53.462Z,15.02
2022-11-01T14:27:51.836Z,14.92
2022-11-01T14:30:23.980Z,14.89
2022-11-01T14:32:55.324Z,14.85
2022-11-01T14:35:33.812Z,14.77
2022-11-01T14:38:18.472Z,14.72
2022-11-01T14:40:52.237Z,14.69
2022-11-01T14:43:30.995Z,14.68
2022-11-01T14:46:13.357Z,14.64
2022-11-01T14:48:40.372Z,14.58
2022-11-01T14:51:26.649Z,14.56
2022-11-01T14:54:02.731Z,14.48
2022-11-01T14:56:39.972Z,14.47
2022-11-01T14:59:26.191Z,14.42
2022-11-01T15:02:02.653Z,14.40
2022-11-01T15:04:32.487Z,14.36
2022-11-01T15:07:00.486Z,14.33
2022-11-01T15:09:29.890Z,14.30
2022-11-01T15:12:09.193Z,14.25
2022-11-01T15:14:40.432Z,14.20
2022-11-01T15:17:17.746Z,14.15
2022-11-01T15:19:45.340Z,14.11
2022-11-01T15:22:17.739Z,14.06
2022-11-01T15:24:47.085Z,14.00
2022-11-01T15:27:17.741Z,13.95
2022-11-01T15:29:44.423Z,13.90
2022-11-01T15:32:32.546Z,13.82
2022-11-01T15:35:01.283Z,13.76
2022-11-01T15:37:33.600Z,13.71
2022-11-01T15:40:01.330Z,13.66
2022-11-01T15:42:32.227Z,13.59
2022-11-01T15:45:18.014Z,13.54
2022-11-01T15:47:46.297Z,13.48
2022-11-01T15:50:13.542Z,13.42
2022-11-01T15:52:40.190Z,13.36
2022-11-01T15:55:17.544Z,13.30
2022-11-01T15:57:56.610Z,13.26
2022-11-01T16:00:28.041Z,13.20
2022-11-01T16:03:10.968Z,13.13
2022-11-01T16:05:44.894Z,13.09
2022-11-01T16:08:22.370Z,13.07
2022-11-01T16:10:49.635Z,13.03
2022-11-01T16:13:19.228Z,12.98
2022-11-01T16:16:00.911Z,12.89
2022-11-01T16:18:27.656Z,12.82
2022-11-01T16:21:06.327Z,12.81
2022-11-01T16:23:33.559Z,12.77
2022-11-01T16:26:05.380Z,12.73
2022-11-01T16:28:44.984Z,12.66
2022-11-01T16:31:19.867Z,12.59
2022-11-01T16:33:47.403Z,12.54
2022-11-01T16:36:19.692Z,12.47
2022-11-01T16:38:53.594Z,12.41
2022-11-01T16:41:36.387Z,12.34
2022-11-01T16:44:14.918Z,12.34
2022-11-01T16:46:41.579Z,12.36
2022-11-01T16:49:24.971Z,12.32
2022-11-01T16:51:52.454Z,12.34
2022-11-01T16:54:19.001Z,12.32
2022-11-01T16:56:48.207Z,12.33
2022-11-01T16:59:31.531Z,12.29
2022-11-01T17:01:58.824Z,12.25
2022-11-01T17:04:29.686Z,12.20
2022-11-01T17:06:59.732Z,12.21
2022-11-01T17:09:30.735Z,12.15
2022-11-01T17:11:57.271Z,12.13
2022-11-01T17:14:23.980Z,12.09
2022-11-01T17:16:52.139Z,12.04
2022-11-01T17:19:41.192Z,12.01
2022-11-01T17:22:19.640Z,11.99
2022-11-01T17:24:46.377Z,11.96
2022-11-01T17:27:14.274Z,11.96
2022-11-01T17:29:40.890Z,11.93
2022-11-01T17:32:11.492Z,11.91
2022-11-01T17:34:39.140Z,11.90
2022-11-01T17:37:06.378Z,11.89
2022-11-01T17:39:33.104Z,11.87
2022-11-01T17:41:59.650Z,11.84
2022-11-01T17:44:26.255Z,11.80
2022-11-01T17:46:52.796Z,11.78
2022-11-01T17:49:21.664Z,11.79
2022-11-01T17:51:53.329Z,11.75
2022-11-01T17:54:21.400Z,11.68
2022-11-01T17:56:48.232Z,11.65
2022-11-01T17:59:14.795Z,11.60
2022-11-01T18:01:42.858Z,11.60
2022-11-01T18:04:09.697Z,11.55
2022-11-01T18:06:36.324Z,11.50
2022-11-01T18:09:15.955Z,11.45
2022-11-01T18:11:51.061Z,11.45
2022-11-01T18:14:38.792Z,11.45
2022-11-01T18:17:32.859Z,11.40
2022-11-01T18:20:09.028Z,11.37
2022-11-01T18:22:55.590Z,11.31
2022-11-01T18:25:25.107Z,11.28
2022-11-01T18:27:51.641Z,11.27
2022-11-01T18:30:20.056Z,11.26
2022-11-01T18:32:59.417Z,11.23
2022-11-01T18:35:51.461Z,11.26
2022-11-01T18:38:32.083Z,11.27
2022-11-01T18:41:01.132Z,11.27
2022-11-01T18:43:31.307Z,11.27
2022-11-01T18:46:23.414Z,11.23
2022-11-01T18:48:45.349Z,11.19
2022-11-01T18:51:16.414Z,11.17
2022-11-01T18:53:42.943Z,11.17
2022-11-01T18:56:21.788Z,11.19
2022-11-01T18:58:49.936Z,11.16
2022-11-01T19:01:31.816Z,11.15
2022-11-01T19:04:02.506Z,11.13
2022-11-01T19:06:32.598Z,11.11
2022-11-01T19:09:09.703Z,11.11
2022-11-01T19:11:36.373Z,11.07
2022-11-01T19:14:03.168Z,11.06
2022-11-01T19:16:29.664Z,11.05
2022-11-01T19:18:56.245Z,11.01
2022-11-01T19:21:23.743Z,11.01
2022-11-01T19:23:53.999Z,11.00
2022-11-01T19:26:20.463Z,10.98
2022-11-01T19:28:49.588Z,10.96
2022-11-01T19:31:33.513Z,10.95
2022-11-01T19:34:03.635Z,10.94
2022-11-01T19:39:22.207Z,10.88
2022-11-01T19:41:48.908Z,10.92
2022-11-01T19:44:20.812Z,10.91
2022-11-01T19:46:48.644Z,10.87
2022-11-01T19:49:21.603Z,10.84
2022-11-01T19:52:13.910Z,10.85
2022-11-01T19:54:42.250Z,10.81
2022-11-01T19:57:34.152Z,10.80
2022-11-01T20:00:21.354Z,10.81
2022-11-01T20:02:50.070Z,10.79
2022-11-01T20:05:30.496Z,10.79
2022-11-01T20:08:12.363Z,10.78
2022-11-01T20:10:38.888Z,10.76
2022-11-01T20:13:05.705Z,10.77
2022-11-01T20:15:32.972Z,10.75
2022-11-01T20:17:59.478Z,10.77
2022-11-01T20:20:25.996Z,10.79
2022-11-01T20:23:06.216Z,10.79
2022-11-01T20:25:39.581Z,10.79
2022-11-01T20:28:06.568Z,10.80
2022-11-01T20:30:33.137Z,10.79
2022-11-01T20:32:59.612Z,10.77
2022-11-01T20:35:26.108Z,10.76
2022-11-01T20:37:53.164Z,10.75
2022-11-01T20:40:19.852Z,10.75
2022-11-01T20:42:46.402Z,10.72
2022-11-01T20:45:12.940Z,10.68
2022-11-01T20:47:45.332Z,10.68
2022-11-01T20:50:15.143Z,10.66
2022-11-01T20:52:42.448Z,10.68
2022-11-01T20:55:10.405Z,10.67
2022-11-01T20:57:37.311Z,10.68
2022-11-01T21:00:05.665Z,10.65
2022-11-01T21:02:33.385Z,10.61
2022-11-01T21:05:02.561Z,10.58
2022-11-01T21:07:31.219Z,10.60
2022-11-01T21:09:57.807Z,10.61
2022-11-01T21:12:47.527Z,10.58
2022-11-01T21:15:26.105Z,10.57
2022-11-01T21:18:01.738Z,10.58
2022-11-01T21:20:29.427Z,10.57
2022-11-01T21:23:01.617Z,10.61
2022-11-01T21:25:28.519Z,10.59
2022-11-01T21:27:55.453Z,10.57
2022-11-01T21:30:23.629Z,10.55
2022-11-01T21:32:51.565Z,10.53
2022-11-01T21:35:21.132Z,10.51
2022-11-01T21:37:50.255Z,10.52
2022-11-01T21:40:29.380Z,10.52
2022-11-01T21:42:57.256Z,10.51
2022-11-01T21:45:31.432Z,10.48
2022-11-01T21:48:02.539Z,10.46
2022-11-01T21:50:29.919Z,10.45
2022-11-01T21:52:56.433Z,10.48
2022-11-01T21:55:23.243Z,10.44
2022-11-01T21:57:50.124Z,10.43
2022-11-01T22:00:16.778Z,10.44
2022-11-01T22:02:43.475Z,10.43
2022-11-01T22:05:10.521Z,10.44
2022-11-01T22:07:37.176Z,10.42
2022-11-01T22:10:04.087Z,10.41
2022-11-01T22:12:30.606Z,10.40
2022-11-01T22:14:57.136Z,10.36
2022-11-01T22:17:23.664Z,10.34
2022-11-01T22:19:50.203Z,10.33
2022-11-01T22:22:16.723Z,10.32
2022-11-01T22:24:43.210Z,10.31
2022-11-01T22:27:09.719Z,10.29
2022-11-01T22:29:36.210Z,10.29
2022-11-01T22:32:02.734Z,10.29
2022-11-01T22:34:29.304Z,10.28
2022-11-01T22:36:56.699Z,10.28
2022-11-01T22:39:25.992Z,10.29
2022-11-01T22:41:53.803Z,10.29
2022-11-01T22:44:32.225Z,10.31
2022-11-01T22:47:01.743Z,10.32
2022-11-01T22:49:34.023Z,10.30
2022-11-01T22:52:04.299Z,10.29
2022-11-01T22:54:38.138Z,10.28
2022-11-01T22:57:10.890Z,10.27
2022-11-01T22:59:42.522Z,10.26
2022-11-01T23:02:29.460Z,10.26
2022-11-01T23:05:07.893Z,10.26
2022-11-01T23:07:46.543Z,10.25
2022-11-01T23:10:22.439Z,10.25
2022-11-01T23:13:10.742Z,10.23
2022-11-01T23:15:37.454Z,10.21
2022-11-01T23:18:22.946Z,10.20
2022-11-01T23:21:02.940Z,10.16
2022-11-01T23:23:29.515Z,10.16
2022-11-01T23:25:59.228Z,10.15
2022-11-01T23:28:27.604Z,10.13
2022-11-01T23:30:55.098Z,10.10
2022-11-01T23:33:23.364Z,10.08
2022-11-01T23:35:56.258Z,10.07
2022-11-01T23:38:26.569Z,10.04
2022-11-01T23:40:54.459Z,10.01
2022-11-01T23:43:24.525Z,10.01
2022-11-01T23:45:52.342Z,10.02
2022-11-01T23:48:22.155Z,10.01
2022-11-01T23:50:49.854Z,9.98
2022-11-01T23:53:18.391Z,9.96
2022-11-01T23:55:48.307Z,9.92
2022-11-01T23:58:20.557Z,9.92
